Time;durP1;ratioP1;P1;durP2;ratioP2;P2;SDS_P1;SDS_P2;PMS_P1;PMS_P2;Temp;Humidity;BMP_temperature;BMP_pressure;BME280_temperature;BME280_humidity;BME280_pressure;Samples;Min_cycle;Max_cycle;Signal;HPM_P1;HPM_P2
2021/07/29 00:00:23;;;;;;;4.97;3.20;;;;;24.30;99987.00;;;;2058897;28;20225;-67
2021/07/29 00:01:23;;;;;;;4.40;2.80;;;;;24.30;99972.00;;;;2059538;28;20305;-67
2021/07/29 00:02:25;;;;;;;3.37;2.40;;;;;24.30;99968.00;;;;2059367;28;20666;-67
2021/07/29 00:03:25;;;;;;;3.58;2.50;;;;;24.30;99964.00;;;;2060093;28;20246;-67
2021/07/29 00:04:26;;;;;;;3.10;2.90;;;;;24.30;99973.00;;;;2060008;28;20234;-67
2021/07/29 00:05:26;;;;;;;3.10;2.57;;;;;24.30;99972.00;;;;2061031;28;20215;-67
2021/07/29 00:06:27;;;;;;;2.30;2.10;;;;;24.30;99968.00;;;;2060794;28;20227;-67
2021/07/29 00:07:27;;;;;;;2.50;2.27;;;;;24.30;99968.00;;;;2060915;28;20253;-67
2021/07/29 00:08:27;;;;;;;3.67;2.50;;;;;24.30;99961.00;;;;2060946;28;20207;-67
2021/07/29 00:09:28;;;;;;;3.50;2.60;;;;;24.30;99962.00;;;;2060219;28;20218;-67
2021/07/29 00:10:28;;;;;;;3.53;2.87;;;;;24.30;99953.00;;;;2059494;28;20234;-67
2021/07/29 00:11:29;;;;;;;3.30;3.00;;;;;24.30;99963.00;;;;2060080;28;20207;-67
2021/07/29 00:12:29;;;;;;;2.90;2.57;;;;;24.30;99959.00;;;;2060036;28;20490;-67
2021/07/29 00:13:30;;;;;;;3.50;2.37;;;;;24.30;99962.00;;;;2060516;28;20307;-67
2021/07/29 00:14:30;;;;;;;3.40;2.30;;;;;24.30;99961.00;;;;2060893;28;20253;-67
2021/07/29 00:15:30;;;;;;;2.90;2.33;;;;;24.30;99979.00;;;;2052452;28;20212;-67
2021/07/29 00:16:33;;;;;;;2.77;2.53;;;;;24.30;99975.00;;;;2059126;28;20298;-67
2021/07/29 00:19:05;;;;;;;2.88;2.40;;;;;24.30;99967.00;;;;2060785;28;20698;-68
2021/07/29 00:20:06;;;;;;;3.17;2.45;;;;;24.30;99957.00;;;;2059316;28;20218;-67
2021/07/29 00:21:07;;;;;;;2.78;2.45;;;;;24.30;99957.00;;;;2059491;28;20364;-67
2021/07/29 00:22:07;;;;;;;4.73;2.40;;;;;24.30;99946.00;;;;2060901;28;20223;-67
2021/07/29 00:23:07;;;;;;;3.93;2.50;;;;;24.30;99941.00;;;;2060821;28;20215;-67
2021/07/29 00:24:08;;;;;;;2.80;2.50;;;;;24.30;99949.00;;;;2060404;28;20224;-67
2021/07/29 00:25:12;;;;;;;3.60;2.43;;;;;24.30;99954.00;;;;2060407;28;20214;-67
2021/07/29 00:26:12;;;;;;;2.63;2.42;;;;;24.30;99952.00;;;;2060413;28;20233;-67
2021/07/29 00:27:13;;;;;;;2.50;2.30;;;;;24.30;99950.00;;;;2061895;28;20722;-67
2021/07/29 00:28:13;;;;;;;2.33;2.13;;;;;24.30;99958.00;;;;2060536;28;20762;-67
2021/07/29 00:29:13;;;;;;;3.23;2.50;;;;;24.30;99947.00;;;;2059535;28;20223;-67
2021/07/29 00:30:14;;;;;;;3.43;2.50;;;;;24.30;99958.00;;;;2059587;28;20220;-67
2021/07/29 00:31:15;;;;;;;2.45;2.25;;;;;24.30;99962.00;;;;2059402;28;20246;-67
2021/07/29 00:32:15;;;;;;;2.30;2.10;;;;;24.30;99959.00;;;;2060725;28;20223;-67
2021/07/29 00:33:16;;;;;;;4.40;2.53;;;;;24.30;99951.00;;;;2060650;28;20222;-67
2021/07/29 00:34:16;;;;;;;2.63;2.43;;;;;24.30;99962.00;;;;2059904;28;20239;-67
2021/07/29 00:35:16;;;;;;;2.63;2.37;;;;;24.30;99966.00;;;;2060026;28;20219;-67
2021/07/29 00:36:23;;;;;;;2.30;2.10;;;;;24.30;99961.00;;;;2056720;28;20222;-67
2021/07/29 00:37:23;;;;;;;2.60;2.40;;;;;24.30;99957.00;;;;2060021;28;20210;-67
2021/07/29 00:38:23;;;;;;;2.77;2.40;;;;;24.30;99950.00;;;;2060555;28;20717;-67
2021/07/29 00:39:24;;;;;;;2.43;2.03;;;;;24.30;99962.00;;;;2060627;28;20212;-67
2021/07/29 00:40:24;;;;;;;3.50;2.53;;;;;24.30;99950.00;;;;2060108;28;20218;-67
2021/07/29 00:41:24;;;;;;;2.67;2.47;;;;;24.30;99943.00;;;;2060381;28;20215;-67
2021/07/29 00:42:25;;;;;;;2.67;2.47;;;;;24.30;99941.00;;;;2059784;28;20225;-67
2021/07/29 00:43:25;;;;;;;2.60;2.40;;;;;24.30;99927.00;;;;2058145;28;20207;-67
2021/07/29 00:44:25;;;;;;;2.60;2.37;;;;;24.30;99937.00;;;;2060513;28;20242;-67
2021/07/29 00:45:26;;;;;;;2.10;1.90;;;;;24.30;99925.00;;;;2060492;28;20211;-67
2021/07/29 00:46:26;;;;;;;2.80;2.00;;;;;24.30;99934.00;;;;2059679;28;20262;-67
2021/07/29 00:47:27;;;;;;;2.40;2.20;;;;;24.30;99933.00;;;;2059611;28;20215;-67
2021/07/29 00:48:27;;;;;;;4.50;2.60;;;;;24.30;99926.00;;;;2050634;28;20217;-67
2021/07/29 00:49:27;;;;;;;3.63;2.10;;;;;24.30;99938.00;;;;2051120;28;20216;-66
2021/07/29 00:50:27;;;;;;;2.57;2.33;;;;;24.30;99936.00;;;;2059571;28;20231;-67
2021/07/29 00:51:28;;;;;;;2.27;2.07;;;;;24.30;99946.00;;;;2060616;28;20215;-67
2021/07/29 00:52:28;;;;;;;3.90;2.70;;;;;24.30;99941.00;;;;2060669;28;20212;-67
2021/07/29 00:53:28;;;;;;;2.33;2.13;;;;;24.30;99939.00;;;;2059836;28;20242;-67
2021/07/29 00:54:29;;;;;;;2.43;2.23;;;;;24.30;99922.00;;;;2060414;28;20221;-67
2021/07/29 00:55:29;;;;;;;2.23;2.03;;;;;24.30;99942.00;;;;2050988;28;20243;-67
2021/07/29 00:56:30;;;;;;;3.50;2.17;;;;;24.30;99940.00;;;;2054462;28;20228;-67
2021/07/29 00:57:30;;;;;;;4.13;2.77;;;;;24.30;99943.00;;;;2058275;28;20216;-67
2021/07/29 00:58:31;;;;;;;2.83;2.30;;;;;24.30;99946.00;;;;2056600;28;20212;-67
2021/07/29 00:59:31;;;;;;;2.33;2.13;;;;;24.30;99952.00;;;;2051917;28;20283;-67
2021/07/29 01:00:31;;;;;;;2.27;2.07;;;;;24.30;99952.00;;;;2051299;28;20216;-67
2021/07/29 01:01:32;;;;;;;2.70;2.50;;;;;24.30;99951.00;;;;2058324;28;20545;-67
2021/07/29 01:02:32;;;;;;;2.13;1.90;;;;;24.40;99959.00;;;;2060605;28;20239;-67
2021/07/29 01:03:32;;;;;;;2.70;2.00;;;;;24.30;99952.00;;;;2060089;28;20218;-67
2021/07/29 01:04:33;;;;;;;2.63;2.23;;;;;24.30;99962.00;;;;2051179;28;20211;-67
2021/07/29 01:05:33;;;;;;;2.07;1.87;;;;;24.30;99947.00;;;;2051126;28;20303;-67
2021/07/29 01:06:33;;;;;;;1.97;1.63;;;;;24.30;99951.00;;;;2059505;28;20219;-66
2021/07/29 01:07:34;;;;;;;5.20;2.13;;;;;24.30;99952.00;;;;2051140;28;20223;-67
2021/07/29 01:09:09;;;;;;;2.50;2.30;;;;;24.30;99949.00;;;;2051742;28;20220;-67
2021/07/29 01:10:09;;;;;;;1.98;1.77;;;;;24.30;99941.00;;;;2058741;28;20219;-67
2021/07/29 01:11:09;;;;;;;2.60;2.40;;;;;24.30;99942.00;;;;2059053;28;20215;-67
2021/07/29 01:12:10;;;;;;;2.97;2.07;;;;;24.30;99935.00;;;;2060448;28;20239;-67
2021/07/29 01:13:10;;;;;;;2.93;2.00;;;;;24.30;99937.00;;;;2059359;28;20253;-67
2021/07/29 01:14:11;;;;;;;2.83;2.17;;;;;24.30;99932.00;;;;2059436;28;20702;-67
2021/07/29 01:15:11;;;;;;;2.33;2.13;;;;;24.30;99932.00;;;;2059904;28;20619;-67
2021/07/29 01:16:11;;;;;;;2.33;2.07;;;;;24.30;99930.00;;;;2059159;28;20222;-67
2021/07/29 01:17:12;;;;;;;2.87;2.57;;;;;24.30;99935.00;;;;2059553;28;20218;-67
2021/07/29 01:18:12;;;;;;;3.57;2.17;;;;;24.30;99930.00;;;;2059750;28;20301;-67
2021/07/29 01:19:12;;;;;;;4.70;2.30;;;;;24.30;99929.00;;;;2059555;28;20220;-67
2021/07/29 01:20:21;;;;;;;2.67;2.00;;;;;24.30;99933.00;;;;2059277;28;20321;-67
2021/07/29 01:21:21;;;;;;;2.35;2.10;;;;;24.20;99932.00;;;;2060327;28;20593;-67
2021/07/29 01:22:22;;;;;;;2.40;2.20;;;;;24.30;99930.00;;;;2057355;28;20318;-67
2021/07/29 01:23:22;;;;;;;2.70;2.10;;;;;24.30;99935.00;;;;2060020;28;20222;-67
2021/07/29 01:24:25;;;;;;;2.60;1.97;;;;;24.30;99926.00;;;;2059518;28;25190;-67
2021/07/29 01:25:25;;;;;;;2.95;2.00;;;;;24.20;99928.00;;;;2059303;28;20222;-67
2021/07/29 01:26:28;;;;;;;2.50;2.20;;;;;24.20;99934.00;;;;2062509;28;20219;-67
2021/07/29 01:27:32;;;;;;;2.35;2.10;;;;;24.20;99931.00;;;;2061051;28;20215;-67
2021/07/29 01:28:32;;;;;;;3.55;2.10;;;;;24.30;99929.00;;;;2060334;28;20215;-67
2021/07/29 01:29:33;;;;;;;2.63;2.40;;;;;24.20;99935.00;;;;2060231;28;20643;-67
2021/07/29 01:30:33;;;;;;;2.50;2.30;;;;;24.30;99923.00;;;;2059530;28;21053;-67
2021/07/29 01:31:33;;;;;;;1.63;1.53;;;;;24.30;99926.00;;;;2059524;28;20218;-67
2021/07/29 01:32:36;;;;;;;2.20;2.00;;;;;24.30;99925.00;;;;2059555;28;20298;-67
2021/07/29 01:33:36;;;;;;;2.10;1.88;;;;;24.30;99928.00;;;;2059227;28;20212;-67
2021/07/29 01:34:37;;;;;;;2.27;2.07;;;;;24.30;99922.00;;;;2059593;28;20215;-67
2021/07/29 01:35:37;;;;;;;3.10;2.13;;;;;24.30;99927.00;;;;2060255;28;20226;-67
2021/07/29 01:36:37;;;;;;;3.10;2.30;;;;;24.20;99924.00;;;;2060163;28;20222;-67
2021/07/29 01:37:41;;;;;;;2.37;2.17;;;;;24.30;99919.00;;;;2060282;28;20285;-67
2021/07/29 01:38:41;;;;;;;4.35;2.40;;;;;24.20;99922.00;;;;2059907;28;20238;-67
2021/07/29 01:39:42;;;;;;;2.13;1.93;;;;;24.20;99925.00;;;;2059397;28;20218;-67
2021/07/29 01:40:42;;;;;;;2.30;2.00;;;;;24.20;99921.00;;;;2058759;28;20712;-67
2021/07/29 01:41:43;;;;;;;2.13;1.93;;;;;24.20;99921.00;;;;2057693;28;20294;-67
2021/07/29 01:42:43;;;;;;;2.20;2.00;;;;;24.20;99918.00;;;;2059217;28;20230;-67
2021/07/29 01:43:43;;;;;;;2.90;2.67;;;;;24.20;99915.00;;;;2060110;28;20227;-67
2021/07/29 01:44:44;;;;;;;3.20;2.10;;;;;24.20;99918.00;;;;2059657;28;20228;-67
2021/07/29 01:45:44;;;;;;;2.50;2.23;;;;;24.20;99913.00;;;;2060004;28;20279;-67
2021/07/29 01:46:44;;;;;;;4.57;2.50;;;;;24.20;99925.00;;;;2059974;28;20215;-67
2021/07/29 01:47:45;;;;;;;4.30;2.20;;;;;24.20;99912.00;;;;2047965;28;20611;-67
2021/07/29 01:48:45;;;;;;;2.53;1.97;;;;;24.20;99915.00;;;;2047688;28;20324;-67
2021/07/29 01:49:45;;;;;;;2.30;1.87;;;;;24.20;99921.00;;;;2059326;28;20234;-67
2021/07/29 01:50:46;;;;;;;2.17;1.97;;;;;24.20;99911.00;;;;2058772;28;20203;-67
2021/07/29 01:51:46;;;;;;;2.50;2.17;;;;;24.20;99910.00;;;;2059396;28;20232;-67
2021/07/29 01:52:46;;;;;;;2.40;2.20;;;;;24.20;99902.00;;;;2059202;28;20261;-67
2021/07/29 01:53:47;;;;;;;2.00;1.80;;;;;24.20;99919.00;;;;2059408;28;20218;-67
2021/07/29 01:54:47;;;;;;;2.50;1.90;;;;;24.20;99906.00;;;;2058436;28;20207;-67
2021/07/29 01:55:48;;;;;;;2.37;2.07;;;;;24.20;99905.00;;;;2060050;28;20199;-67
2021/07/29 01:56:48;;;;;;;2.33;2.00;;;;;24.20;99907.00;;;;2061957;28;20641;-67
2021/07/29 01:57:48;;;;;;;2.57;1.80;;;;;24.20;99915.00;;;;2061726;28;20211;-67
2021/07/29 01:58:49;;;;;;;2.30;2.10;;;;;24.20;99915.00;;;;2063264;28;20211;-67
2021/07/29 01:59:49;;;;;;;2.13;1.93;;;;;24.20;99904.00;;;;2060739;28;20297;-67
2021/07/29 02:00:50;;;;;;;1.80;1.70;;;;;24.20;99914.00;;;;2058721;28;20211;-67
2021/07/29 02:01:50;;;;;;;2.00;1.90;;;;;24.20;99913.00;;;;2059091;28;20223;-67
2021/07/29 02:02:50;;;;;;;2.07;1.80;;;;;24.20;99908.00;;;;2050692;28;20256;-67
2021/07/29 02:03:51;;;;;;;1.90;1.80;;;;;24.20;99916.00;;;;2050674;28;20220;-67
2021/07/29 02:04:51;;;;;;;2.20;2.00;;;;;24.20;99917.00;;;;2059541;28;20215;-67
2021/07/29 02:05:51;;;;;;;2.33;2.13;;;;;24.20;99914.00;;;;2059763;28;20251;-67
2021/07/29 02:06:52;;;;;;;3.27;2.50;;;;;24.20;99913.00;;;;2059761;28;20257;-67
2021/07/29 02:07:52;;;;;;;2.10;2.00;;;;;24.20;99906.00;;;;2060023;28;20287;-67
2021/07/29 02:08:52;;;;;;;1.90;1.73;;;;;24.20;99915.00;;;;2059903;28;20325;-67
2021/07/29 02:09:53;;;;;;;2.83;2.20;;;;;24.20;99914.00;;;;2059166;28;20226;-67
2021/07/29 02:10:53;;;;;;;1.90;1.70;;;;;24.20;99912.00;;;;2058553;28;20694;-67
2021/07/29 02:11:53;;;;;;;2.00;1.77;;;;;24.20;99911.00;;;;2058975;28;20709;-67
2021/07/29 02:12:57;;;;;;;1.60;1.50;;;;;24.20;99920.00;;;;2058819;28;21031;-67
2021/07/29 02:14:00;;;;;;;2.20;2.00;;;;;24.20;99916.00;;;;2059019;28;20729;-68
2021/07/29 02:15:01;;;;;;;2.85;2.22;;;;;24.20;99917.00;;;;2059026;28;20223;-67
2021/07/29 02:16:02;;;;;;;2.13;1.90;;;;;24.20;99914.00;;;;2059009;28;20239;-67
2021/07/29 02:17:02;;;;;;;1.98;1.85;;;;;24.20;99916.00;;;;2042690;29;20304;-67
2021/07/29 02:18:03;;;;;;;2.83;2.37;;;;;24.20;99913.00;;;;2043207;28;20229;-67
2021/07/29 02:19:03;;;;;;;1.87;1.77;;;;;24.20;99920.00;;;;2059740;28;20215;-67
2021/07/29 02:20:04;;;;;;;2.17;1.97;;;;;24.20;99914.00;;;;2059712;28;20694;-68
2021/07/29 02:21:08;;;;;;;2.10;1.90;;;;;24.20;99906.00;;;;2058639;28;20233;-67
2021/07/29 02:22:09;;;;;;;2.20;2.00;;;;;24.20;99919.00;;;;2058937;28;20236;-67
2021/07/29 02:23:09;;;;;;;2.30;2.00;;;;;24.20;99920.00;;;;2059104;28;20717;-67
2021/07/29 02:24:10;;;;;;;2.10;1.90;;;;;24.20;99910.00;;;;2058976;28;20709;-67
2021/07/29 02:25:12;;;;;;;2.13;1.93;;;;;24.20;99914.00;;;;2059396;28;20216;-69
2021/07/29 02:26:12;;;;;;;3.00;1.92;;;;;24.20;99917.00;;;;2059422;28;20214;-67
2021/07/29 02:27:12;;;;;;;4.33;1.73;;;;;24.20;99902.00;;;;2059734;28;20930;-67
2021/07/29 02:28:13;;;;;;;1.67;1.57;;;;;24.20;99922.00;;;;2060068;28;20211;-67
2021/07/29 02:29:13;;;;;;;1.80;1.67;;;;;24.20;99910.00;;;;2062324;28;20234;-67
2021/07/29 02:30:13;;;;;;;1.90;1.70;;;;;24.20;99910.00;;;;2061090;28;20290;-67
2021/07/29 02:31:14;;;;;;;1.73;1.63;;;;;24.20;99914.00;;;;2060595;28;20290;-67
2021/07/29 02:32:14;;;;;;;2.10;1.90;;;;;24.20;99915.00;;;;2058808;28;20212;-67
2021/07/29 02:33:14;;;;;;;1.77;1.67;;;;;24.20;99914.00;;;;2058897;28;20243;-67
2021/07/29 02:34:15;;;;;;;2.20;2.00;;;;;24.20;99917.00;;;;2059770;28;20211;-67
2021/07/29 02:35:15;;;;;;;2.47;2.10;;;;;24.20;99913.00;;;;2059636;28;20219;-67
2021/07/29 02:36:15;;;;;;;2.10;1.90;;;;;24.20;99911.00;;;;2058889;28;20273;-67
2021/07/29 02:37:16;;;;;;;2.17;1.63;;;;;24.20;99906.00;;;;2043110;28;20271;-67
2021/07/29 02:38:16;;;;;;;2.20;2.00;;;;;24.20;99907.00;;;;2042326;29;20217;-67
2021/07/29 02:39:17;;;;;;;2.00;1.80;;;;;24.20;99903.00;;;;2058889;28;20211;-67
2021/07/29 02:40:17;;;;;;;1.97;1.83;;;;;24.20;99909.00;;;;2058242;28;20211;-67
2021/07/29 02:41:19;;;;;;;1.90;1.80;;;;;24.20;99911.00;;;;2058798;28;20222;-67
2021/07/29 02:42:19;;;;;;;2.58;2.38;;;;;24.10;99904.00;;;;2059485;28;20275;-67
2021/07/29 02:43:20;;;;;;;2.53;2.20;;;;;24.20;99906.00;;;;2059318;28;20629;-67
2021/07/29 02:44:20;;;;;;;2.30;1.70;;;;;24.10;99910.00;;;;2059652;28;20628;-67
2021/07/29 02:45:20;;;;;;;2.50;1.70;;;;;24.20;99915.00;;;;2059550;28;20676;-67
2021/07/29 02:46:21;;;;;;;1.77;1.60;;;;;24.20;99927.00;;;;2059208;28;20210;-67
2021/07/29 02:47:21;;;;;;;2.10;1.80;;;;;24.20;99911.00;;;;2058891;28;20581;-67
2021/07/29 02:48:21;;;;;;;1.77;1.67;;;;;24.20;99906.00;;;;2058805;28;20218;-67
2021/07/29 02:49:22;;;;;;;1.77;1.67;;;;;24.20;99908.00;;;;2058383;28;20226;-67
2021/07/29 02:50:22;;;;;;;1.60;1.50;;;;;24.20;99901.00;;;;2057980;28;20703;-67
2021/07/29 02:51:22;;;;;;;2.07;1.80;;;;;24.20;99905.00;;;;2059503;28;20773;-67
2021/07/29 02:52:23;;;;;;;1.60;1.50;;;;;24.20;99908.00;;;;2058947;28;21159;-67
2021/07/29 02:53:25;;;;;;;1.50;1.40;;;;;24.10;99909.00;;;;2059564;28;20206;-67
2021/07/29 02:54:25;;;;;;;2.20;1.70;;;;;24.20;99909.00;;;;2059545;28;20294;-67
2021/07/29 02:55:26;;;;;;;2.30;1.83;;;;;24.10;99907.00;;;;2058657;28;20206;-66
2021/07/29 02:56:26;;;;;;;1.77;1.57;;;;;24.10;99914.00;;;;2058769;28;20203;-67
2021/07/29 02:57:26;;;;;;;1.73;1.60;;;;;24.10;99906.00;;;;2058687;28;20216;-67
2021/07/29 02:58:27;;;;;;;2.20;1.80;;;;;24.10;99914.00;;;;2061769;28;20737;-67
2021/07/29 02:59:27;;;;;;;3.13;1.90;;;;;24.20;99903.00;;;;2060085;28;20716;-67
2021/07/29 03:00:27;;;;;;;2.50;1.60;;;;;24.20;99906.00;;;;2058926;28;20867;-67
2021/07/29 03:01:28;;;;;;;3.10;1.80;;;;;24.10;99910.00;;;;2060815;28;20562;-67
2021/07/29 03:02:29;;;;;;;1.83;1.67;;;;;24.20;99908.00;;;;2058716;28;20777;-67
2021/07/29 03:03:30;;;;;;;2.40;1.63;;;;;24.10;99909.00;;;;2059142;28;20212;-67
2021/07/29 03:04:30;;;;;;;2.42;1.90;;;;;24.10;99905.00;;;;2059529;28;20203;-67
2021/07/29 03:05:30;;;;;;;1.87;1.60;;;;;24.10;99909.00;;;;2059421;28;20245;-67
2021/07/29 03:06:31;;;;;;;2.50;1.60;;;;;24.10;99912.00;;;;2059040;28;20715;-67
2021/07/29 03:07:33;;;;;;;1.90;1.60;;;;;24.10;99915.00;;;;2059052;28;20230;-67
2021/07/29 03:08:33;;;;;;;1.85;1.75;;;;;24.10;99914.00;;;;2058687;28;20361;-67
2021/07/29 03:09:33;;;;;;;2.10;1.60;;;;;24.10;99916.00;;;;2058458;28;20269;-66
2021/07/29 03:10:34;;;;;;;2.93;1.80;;;;;24.10;99912.00;;;;2056475;28;20215;-67
2021/07/29 03:11:34;;;;;;;1.97;1.73;;;;;24.10;99918.00;;;;2058956;28;20347;-67
2021/07/29 03:12:34;;;;;;;2.13;1.50;;;;;24.10;99906.00;;;;2059428;28;20302;-67
2021/07/29 03:13:35;;;;;;;2.10;1.60;;;;;24.10;99916.00;;;;2059362;28;20216;-67
2021/07/29 03:14:35;;;;;;;1.60;1.50;;;;;24.10;99907.00;;;;2059423;28;20214;-67
2021/07/29 03:15:35;;;;;;;3.03;1.50;;;;;24.10;99915.00;;;;2059377;28;20203;-67
2021/07/29 03:16:36;;;;;;;2.37;1.87;;;;;24.10;99918.00;;;;2058641;28;20253;-67
2021/07/29 03:17:36;;;;;;;2.50;1.63;;;;;24.10;99920.00;;;;2058714;28;20273;-67
2021/07/29 03:18:36;;;;;;;2.10;1.90;;;;;24.10;99912.00;;;;2058496;28;20211;-67
2021/07/29 03:19:37;;;;;;;2.60;1.50;;;;;24.10;99921.00;;;;2058650;28;20207;-67
2021/07/29 03:20:39;;;;;;;2.07;1.87;;;;;24.10;99912.00;;;;2058573;28;20219;-67
2021/07/29 03:21:40;;;;;;;1.92;1.75;;;;;24.20;99912.00;;;;2059395;28;20231;-67
2021/07/29 03:22:40;;;;;;;2.73;2.10;;;;;24.10;99925.00;;;;2059407;28;21202;-67
2021/07/29 03:23:40;;;;;;;1.77;1.63;;;;;24.10;99927.00;;;;2059201;28;20288;-67
2021/07/29 03:24:41;;;;;;;2.03;1.73;;;;;24.10;99921.00;;;;2058938;28;20225;-67
2021/07/29 03:25:41;;;;;;;2.10;1.90;;;;;24.10;99919.00;;;;2058546;28;20211;-67
2021/07/29 03:26:41;;;;;;;2.03;1.67;;;;;24.10;99914.00;;;;2058070;28;20215;-67
2021/07/29 03:27:42;;;;;;;1.83;1.70;;;;;24.10;99918.00;;;;2058627;28;20215;-67
2021/07/29 03:28:42;;;;;;;1.57;1.47;;;;;24.10;99921.00;;;;2062063;28;20353;-67
2021/07/29 03:29:42;;;;;;;2.87;1.83;;;;;24.10;99923.00;;;;2061695;28;20226;-67
2021/07/29 03:30:44;;;;;;;2.07;1.70;;;;;24.10;99916.00;;;;2060223;28;21031;-67
2021/07/29 03:31:44;;;;;;;3.53;1.90;;;;;24.00;99925.00;;;;2056723;28;21048;-67
2021/07/29 03:32:44;;;;;;;2.13;1.50;;;;;24.10;99921.00;;;;2057894;28;20255;-67
2021/07/29 03:33:45;;;;;;;2.63;1.47;;;;;24.10;99911.00;;;;2059414;28;20894;-66
2021/07/29 03:34:45;;;;;;;1.53;1.43;;;;;24.10;99923.00;;;;2059349;28;20220;-67
2021/07/29 03:35:45;;;;;;;2.10;1.90;;;;;24.10;99915.00;;;;2059344;28;20679;-67
2021/07/29 03:36:46;;;;;;;2.00;1.70;;;;;24.10;99921.00;;;;2059291;28;20218;-67
2021/07/29 03:37:47;;;;;;;2.67;1.70;;;;;24.20;99931.00;;;;2058793;28;20245;-67
2021/07/29 03:38:47;;;;;;;3.07;1.60;;;;;24.10;99928.00;;;;2058544;28;20214;-67
2021/07/29 03:39:47;;;;;;;2.07;1.73;;;;;24.10;99923.00;;;;2058306;28;20265;-67
2021/07/29 03:40:48;;;;;;;1.90;1.60;;;;;24.10;99926.00;;;;2058071;28;20253;-67
2021/07/29 03:41:48;;;;;;;2.20;1.93;;;;;24.10;99923.00;;;;2058777;28;20231;-66
2021/07/29 03:42:48;;;;;;;1.80;1.50;;;;;24.10;99934.00;;;;2059473;28;20223;-67
2021/07/29 03:43:49;;;;;;;2.27;2.07;;;;;24.10;99932.00;;;;2059150;28;20302;-67
2021/07/29 03:44:49;;;;;;;1.83;1.60;;;;;24.10;99927.00;;;;2059302;28;20226;-67
2021/07/29 03:45:49;;;;;;;2.27;1.70;;;;;24.10;99916.00;;;;2059168;28;20215;-67
2021/07/29 03:46:50;;;;;;;2.23;1.87;;;;;24.10;99930.00;;;;2058471;28;20233;-67
2021/07/29 03:47:50;;;;;;;1.70;1.60;;;;;24.10;99929.00;;;;2058654;28;20211;-67
2021/07/29 03:48:50;;;;;;;2.30;1.53;;;;;24.10;99921.00;;;;2058603;28;20215;-67
2021/07/29 03:49:51;;;;;;;3.07;1.80;;;;;24.10;99925.00;;;;2058347;28;20239;-67
2021/07/29 03:50:51;;;;;;;2.03;1.60;;;;;24.10;99924.00;;;;2058478;28;20225;-67
2021/07/29 03:51:52;;;;;;;1.73;1.50;;;;;24.10;99923.00;;;;2059293;28;20226;-67
2021/07/29 03:52:52;;;;;;;2.07;1.90;;;;;24.10;99929.00;;;;2059263;28;20573;-67
2021/07/29 03:53:52;;;;;;;1.77;1.67;;;;;24.10;99924.00;;;;2059320;28;20752;-67
2021/07/29 03:54:53;;;;;;;1.80;1.57;;;;;24.10;99931.00;;;;2058830;28;20697;-67
2021/07/29 03:55:53;;;;;;;2.17;1.97;;;;;24.10;99927.00;;;;2058428;28;20230;-67
2021/07/29 03:56:53;;;;;;;3.80;1.70;;;;;24.10;99916.00;;;;2058473;28;20281;-67
2021/07/29 03:57:54;;;;;;;3.20;2.00;;;;;24.10;99920.00;;;;2061425;28;20652;-67
2021/07/29 03:58:54;;;;;;;2.10;1.43;;;;;24.10;99926.00;;;;2062644;28;20638;-67
2021/07/29 03:59:55;;;;;;;1.90;1.60;;;;;24.10;99936.00;;;;2058799;28;20610;-67
2021/07/29 04:00:56;;;;;;;2.00;1.90;;;;;24.10;99922.00;;;;2059383;28;20589;-67
2021/07/29 04:01:57;;;;;;;1.40;1.30;;;;;24.10;99925.00;;;;2059955;28;20215;-67
2021/07/29 04:02:59;;;;;;;2.23;1.70;;;;;24.10;99920.00;;;;2058119;28;20215;-67
2021/07/29 04:03:59;;;;;;;2.22;1.67;;;;;24.10;99924.00;;;;2058758;28;20711;-67
2021/07/29 04:05:00;;;;;;;2.00;1.73;;;;;24.10;99926.00;;;;2058443;28;20215;-67
2021/07/29 04:06:00;;;;;;;2.30;1.63;;;;;24.10;99929.00;;;;2058539;28;20306;-67
2021/07/29 04:07:01;;;;;;;2.63;2.00;;;;;24.10;99920.00;;;;2058464;28;20227;-67
2021/07/29 04:08:01;;;;;;;1.77;1.60;;;;;24.10;99928.00;;;;2049106;28;20318;-67
2021/07/29 04:09:01;;;;;;;2.00;1.57;;;;;24.10;99930.00;;;;2049180;28;20211;-67
2021/07/29 04:10:03;;;;;;;1.90;1.70;;;;;24.10;99923.00;;;;2057901;28;20222;-67
2021/07/29 04:11:05;;;;;;;1.92;1.70;;;;;24.10;99922.00;;;;2057305;28;20346;-67
2021/07/29 04:12:06;;;;;;;1.77;1.60;;;;;24.10;99928.00;;;;2058126;28;20215;-67
2021/07/29 04:13:06;;;;;;;2.63;2.03;;;;;24.10;99922.00;;;;2057800;28;20238;-67
2021/07/29 04:14:06;;;;;;;2.00;1.80;;;;;24.10;99921.00;;;;2057870;28;20215;-67
2021/07/29 04:15:07;;;;;;;1.90;1.70;;;;;24.10;99919.00;;;;2048727;28;20263;-67
2021/07/29 04:16:08;;;;;;;2.23;1.90;;;;;24.10;99916.00;;;;2057190;28;20253;-67
2021/07/29 04:17:09;;;;;;;1.97;1.60;;;;;24.10;99926.00;;;;2055652;28;20712;-67
2021/07/29 04:18:09;;;;;;;1.67;1.57;;;;;24.10;99924.00;;;;2058799;28;20451;-67
2021/07/29 04:19:09;;;;;;;1.90;1.60;;;;;24.10;99923.00;;;;2058860;28;20230;-67
2021/07/29 04:20:10;;;;;;;1.90;1.70;;;;;24.10;99925.00;;;;2057932;28;20223;-67
2021/07/29 04:21:15;;;;;;;3.80;1.60;;;;;24.10;99917.00;;;;2057977;28;20219;-67
2021/07/29 04:22:15;;;;;;;2.90;1.90;;;;;24.10;99923.00;;;;2058326;28;20699;-67
2021/07/29 04:23:16;;;;;;;3.00;1.60;;;;;24.10;99914.00;;;;2058597;28;20216;-67
2021/07/29 04:24:17;;;;;;;1.60;1.50;;;;;24.10;99919.00;;;;2059294;28;20269;-67
2021/07/29 04:25:17;;;;;;;1.77;1.67;;;;;24.10;99919.00;;;;2059152;28;20215;-67
2021/07/29 04:26:18;;;;;;;1.93;1.73;;;;;24.10;99926.00;;;;2056342;28;20216;-67
2021/07/29 04:27:18;;;;;;;2.07;1.80;;;;;24.10;99913.00;;;;2058472;28;25840;-67
2021/07/29 04:28:18;;;;;;;3.17;2.00;;;;;24.10;99911.00;;;;2052948;28;20695;-67
2021/07/29 04:29:19;;;;;;;2.00;1.90;;;;;24.10;99917.00;;;;2055188;28;20741;-67
2021/07/29 04:30:19;;;;;;;2.20;2.00;;;;;24.10;99925.00;;;;2059830;28;20215;-66
2021/07/29 04:31:19;;;;;;;2.83;1.80;;;;;24.10;99920.00;;;;2059504;28;20231;-67
2021/07/29 04:32:20;;;;;;;2.27;1.73;;;;;24.10;99926.00;;;;2058853;28;20621;-67
2021/07/29 04:33:20;;;;;;;2.17;1.90;;;;;24.10;99922.00;;;;2059007;28;20629;-67
2021/07/29 04:34:21;;;;;;;2.30;1.60;;;;;24.10;99932.00;;;;2059052;28;20216;-67
2021/07/29 04:35:21;;;;;;;1.90;1.50;;;;;24.10;99934.00;;;;2059143;28;20682;-67
2021/07/29 04:36:21;;;;;;;2.00;1.70;;;;;24.10;99931.00;;;;2055662;28;20708;-67
2021/07/29 04:37:22;;;;;;;2.93;1.70;;;;;24.10;99925.00;;;;2058310;28;20670;-67
2021/07/29 04:38:22;;;;;;;2.37;2.00;;;;;24.10;99924.00;;;;2057681;28;20280;-67
2021/07/29 04:39:22;;;;;;;2.07;1.50;;;;;24.10;99932.00;;;;2058215;28;21123;-67
2021/07/29 04:40:23;;;;;;;1.80;1.70;;;;;24.10;99932.00;;;;2057641;28;20819;-67
2021/07/29 04:41:23;;;;;;;2.33;2.00;;;;;24.10;99939.00;;;;2058803;28;20227;-67
2021/07/29 04:42:23;;;;;;;2.90;2.10;;;;;24.10;99930.00;;;;2059102;28;20224;-67
2021/07/29 04:43:24;;;;;;;3.37;1.93;;;;;24.10;99935.00;;;;2059018;28;20219;-67
2021/07/29 04:44:24;;;;;;;2.10;1.90;;;;;24.10;99939.00;;;;2059291;28;20219;-67
2021/07/29 04:45:24;;;;;;;2.20;2.00;;;;;24.10;99936.00;;;;2050904;28;20219;-67
2021/07/29 04:46:25;;;;;;;3.23;1.67;;;;;24.00;99938.00;;;;2051149;28;20223;-67
2021/07/29 04:47:25;;;;;;;1.70;1.60;;;;;24.10;99940.00;;;;2059351;28;20250;-67
2021/07/29 04:48:26;;;;;;;2.80;1.67;;;;;24.10;99943.00;;;;2062793;28;20221;-67
2021/07/29 04:49:26;;;;;;;2.70;1.70;;;;;24.10;99946.00;;;;2060231;28;20241;-67
2021/07/29 04:50:27;;;;;;;2.33;1.73;;;;;24.10;99943.00;;;;2059138;28;20220;-67
2021/07/29 04:51:27;;;;;;;3.70;1.97;;;;;24.10;99946.00;;;;2059662;28;20226;-67
2021/07/29 04:52:27;;;;;;;5.33;1.93;;;;;24.10;99950.00;;;;2059682;28;20216;-67
2021/07/29 04:53:28;;;;;;;2.17;1.40;;;;;24.10;99959.00;;;;2059738;28;20212;-67
2021/07/29 04:54:28;;;;;;;3.33;1.57;;;;;24.10;99946.00;;;;2060493;28;20246;-67
2021/07/29 04:55:28;;;;;;;3.13;1.90;;;;;24.10;99955.00;;;;2058835;28;20694;-67
2021/07/29 04:56:29;;;;;;;3.87;1.90;;;;;24.10;99953.00;;;;2059538;28;20293;-67
2021/07/29 04:57:29;;;;;;;2.00;1.53;;;;;24.10;99958.00;;;;2059661;28;20239;-67
2021/07/29 04:58:29;;;;;;;2.40;1.83;;;;;24.10;99947.00;;;;2053165;28;20798;-66
2021/07/29 04:59:30;;;;;;;2.93;1.83;;;;;24.10;99957.00;;;;2047206;28;20703;-67
2021/07/29 05:00:30;;;;;;;1.83;1.50;;;;;24.10;99956.00;;;;2059772;28;21130;-67
2021/07/29 05:01:31;;;;;;;1.87;1.47;;;;;24.10;99947.00;;;;2060840;28;20695;-67
2021/07/29 05:02:31;;;;;;;2.60;1.67;;;;;24.10;99958.00;;;;2059644;28;20250;-67
2021/07/29 05:03:31;;;;;;;2.20;1.90;;;;;24.10;99956.00;;;;2059403;28;20223;-67
2021/07/29 05:04:33;;;;;;;2.60;1.80;;;;;24.10;99955.00;;;;2063604;28;20297;-67
2021/07/29 05:05:33;;;;;;;3.53;1.92;;;;;24.10;99955.00;;;;2062534;28;20742;-67